Rosetta, Mississippi
Current Conditions -  °F | °C
As of 11:35 AM on Sunday 23 Nov 2014 (Local Time) from KHEZ Reporting Station
Overcast Overcast  
Wind Chill: 66°   Ceiling: 2100
Heat Index: 66°   Visibility: 10mi
Dew Point: 59°   Wind: 14mph
Humidity: 78%   Direction: 210°SSW
Pressure: 29.58"   Gusts: 20mph
Location:  31.312°N, 90.9827°W
Report Text: KHEZ 231735Z AUTO 21012G17KT 10SM BKN021 OVC025 19/15 A2958 RMK AO1
Loading
Personal Weather Stations






























Interactive Weather Map New forecast layout! Learn more

10-Day Weather Forecast

Advertisements
Track Severe Weather on mobile